sensor_id;sensor_type;location;lat;lon;timestamp;pressure;altitude;pressure_sealevel;temperature;humidity
68793;BME280;55778;54.346;10.210;2022-12-18T00:01:35;102505.84;;;-4.92;98.20
68793;BME280;55778;54.346;10.210;2022-12-18T00:04:04;102510.28;;;-4.91;98.04
68793;BME280;55778;54.346;10.210;2022-12-18T00:06:31;102513.81;;;-4.91;98.09
68793;BME280;55778;54.346;10.210;2022-12-18T00:08:59;102512.94;;;-4.91;97.88
68793;BME280;55778;54.346;10.210;2022-12-18T00:11:28;102517.38;;;-4.95;98.05
68793;BME280;55778;54.346;10.210;2022-12-18T00:13:55;102528.91;;;-4.96;98.18
68793;BME280;55778;54.346;10.210;2022-12-18T00:16:22;102517.41;;;-4.99;97.96
68793;BME280;55778;54.346;10.210;2022-12-18T00:18:53;102526.25;;;-4.99;98.00
68793;BME280;55778;54.346;10.210;2022-12-18T00:21:20;102532.44;;;-5.00;98.08
68793;BME280;55778;54.346;10.210;2022-12-18T00:23:47;102539.56;;;-5.05;98.09
68793;BME280;55778;54.346;10.210;2022-12-18T00:26:14;102526.31;;;-5.14;98.39
68793;BME280;55778;54.346;10.210;2022-12-18T00:28:41;102527.22;;;-5.21;98.66
68793;BME280;55778;54.346;10.210;2022-12-18T00:31:09;102527.25;;;-5.30;99.05
68793;BME280;55778;54.346;10.210;2022-12-18T00:33:35;102519.28;;;-5.31;99.17
68793;BME280;55778;54.346;10.210;2022-12-18T00:36:05;102527.25;;;-5.30;99.09
68793;BME280;55778;54.346;10.210;2022-12-18T00:38:32;102519.28;;;-5.33;99.17
68793;BME280;55778;54.346;10.210;2022-12-18T00:40:57;102515.75;;;-5.35;99.47
68793;BME280;55778;54.346;10.210;2022-12-18T00:43:23;102516.63;;;-5.34;99.45
68793;BME280;55778;54.346;10.210;2022-12-18T00:45:48;102506.88;;;-5.40;99.36
68793;BME280;55778;54.346;10.210;2022-12-18T00:48:14;102494.50;;;-5.44;99.52
68793;BME280;55778;54.346;10.210;2022-12-18T00:50:39;102498.06;;;-5.48;99.46
68793;BME280;55778;54.346;10.210;2022-12-18T00:53:05;102504.25;;;-5.46;99.43
68793;BME280;55778;54.346;10.210;2022-12-18T00:55:30;102507.78;;;-5.48;99.39
68793;BME280;55778;54.346;10.210;2022-12-18T00:57:56;102511.34;;;-5.49;99.33
68793;BME280;55778;54.346;10.210;2022-12-18T01:00:21;102518.44;;;-5.54;99.29
68793;BME280;55778;54.346;10.210;2022-12-18T01:02:47;102516.69;;;-5.58;99.42
68793;BME280;55778;54.346;10.210;2022-12-18T01:05:13;102511.38;;;-5.63;99.72
68793;BME280;55778;54.346;10.210;2022-12-18T01:07:39;102535.25;;;-5.57;99.60
68793;BME280;55778;54.346;10.210;2022-12-18T01:10:05;102540.56;;;-5.55;99.54
68793;BME280;55778;54.346;10.210;2022-12-18T01:12:31;102544.97;;;-5.51;99.35
68793;BME280;55778;54.346;10.210;2022-12-18T01:14:57;102549.44;;;-5.50;99.12
68793;BME280;55778;54.346;10.210;2022-12-18T01:17:22;102554.75;;;-5.52;99.04
68793;BME280;55778;54.346;10.210;2022-12-18T01:19:48;102550.28;;;-5.54;99.08
68793;BME280;55778;54.346;10.210;2022-12-18T01:22:13;102544.13;;;-5.61;99.18
68793;BME280;55778;54.346;10.210;2022-12-18T01:24:39;102533.50;;;-5.65;99.11
68793;BME280;55778;54.346;10.210;2022-12-18T01:27:04;102531.72;;;-5.71;99.53
68793;BME280;55778;54.346;10.210;2022-12-18T01:29:30;102535.28;;;-5.75;99.47
68793;BME280;55778;54.346;10.210;2022-12-18T01:31:56;102537.94;;;-5.75;99.65
68793;BME280;55778;54.346;10.210;2022-12-18T01:34:22;102540.59;;;-5.75;99.52
68793;BME280;55778;54.346;10.210;2022-12-18T01:36:48;102549.44;;;-5.74;99.66
68793;BME280;55778;54.346;10.210;2022-12-18T01:39:14;102561.81;;;-5.79;99.25
68793;BME280;55778;54.346;10.210;2022-12-18T01:41:41;102562.72;;;-5.80;99.34
68793;BME280;55778;54.346;10.210;2022-12-18T01:52:46;102562.75;;;-5.94;99.71
68793;BME280;55778;54.346;10.210;2022-12-18T01:55:13;102559.19;;;-6.00;99.72
68793;BME280;55778;54.346;10.210;2022-12-18T01:57:41;102561.84;;;-5.93;99.79
68793;BME280;55778;54.346;10.210;2022-12-18T02:00:10;102567.16;;;-5.94;99.65
68793;BME280;55778;54.346;10.210;2022-12-18T02:02:36;102549.47;;;-5.97;99.73
68793;BME280;55778;54.346;10.210;2022-12-18T02:05:03;102560.09;;;-5.94;99.63
68793;BME280;55778;54.346;10.210;2022-12-18T02:07:37;102554.78;;;-5.95;99.67
68793;BME280;55778;54.346;10.210;2022-12-18T02:10:27;102563.63;;;-5.96;99.66
68793;BME280;55778;54.346;10.210;2022-12-18T02:18:34;102574.25;;;-5.99;99.84
68793;BME280;55778;54.346;10.210;2022-12-18T02:21:36;102568.94;;;-5.98;99.74
68793;BME280;55778;54.346;10.210;2022-12-18T02:26:56;102563.63;;;-5.89;99.59
68793;BME280;55778;54.346;10.210;2022-12-18T02:29:34;102553.00;;;-5.86;99.33
68793;BME280;55778;54.346;10.210;2022-12-18T02:32:06;102556.50;;;-5.81;99.26
68793;BME280;55778;54.346;10.210;2022-12-18T02:34:34;102557.41;;;-5.80;99.11
68793;BME280;55778;54.346;10.210;2022-12-18T02:37:04;102575.97;;;-5.79;99.12
68793;BME280;55778;54.346;10.210;2022-12-18T02:39:32;102576.84;;;-5.77;99.09
68793;BME280;55778;54.346;10.210;2022-12-18T02:41:58;102578.66;;;-5.68;99.09
68793;BME280;55778;54.346;10.210;2022-12-18T02:44:24;102577.75;;;-5.70;98.99
68793;BME280;55778;54.346;10.210;2022-12-18T02:46:52;102570.69;;;-5.62;98.74
68793;BME280;55778;54.346;10.210;2022-12-18T02:49:34;102577.75;;;-5.66;98.77
68793;BME280;55778;54.346;10.210;2022-12-18T02:54:55;102580.41;;;-5.60;98.42
68793;BME280;55778;54.346;10.210;2022-12-18T02:57:29;102575.09;;;-5.55;98.25
68793;BME280;55778;54.346;10.210;2022-12-18T03:00:06;102574.19;;;-5.57;98.30
68793;BME280;55778;54.346;10.210;2022-12-18T03:02:52;102570.69;;;-5.58;98.47
68793;BME280;55778;54.346;10.210;2022-12-18T03:05:38;102573.31;;;-5.55;98.42
68793;BME280;55778;54.346;10.210;2022-12-18T03:08:13;102588.38;;;-5.55;98.30
68793;BME280;55778;54.346;10.210;2022-12-18T03:10:55;102579.50;;;-5.56;98.11
68793;BME280;55778;54.346;10.210;2022-12-18T03:13:31;102577.75;;;-5.58;98.25
68793;BME280;55778;54.346;10.210;2022-12-18T03:15:59;102577.75;;;-5.58;98.16
68793;BME280;55778;54.346;10.210;2022-12-18T03:18:30;102560.91;;;-5.62;98.34
68793;BME280;55778;54.346;10.210;2022-12-18T03:20:58;102564.47;;;-5.63;98.32
68793;BME280;55778;54.346;10.210;2022-12-18T03:23:28;102560.91;;;-5.63;98.25
68793;BME280;55778;54.346;10.210;2022-12-18T03:25:58;102568.88;;;-5.69;98.18
68793;BME280;55778;54.346;10.210;2022-12-18T03:28:25;102571.53;;;-5.72;98.23
68793;BME280;55778;54.346;10.210;2022-12-18T03:30:57;102564.47;;;-5.73;98.42
68793;BME280;55778;54.346;10.210;2022-12-18T03:33:27;102572.44;;;-5.75;98.21
68793;BME280;55778;54.346;10.210;2022-12-18T03:35:55;102573.34;;;-5.71;98.44
68793;BME280;55778;54.346;10.210;2022-12-18T03:38:20;102573.34;;;-5.67;98.31
68793;BME280;55778;54.346;10.210;2022-12-18T03:46:50;102572.44;;;-5.58;97.94
68793;BME280;55778;54.346;10.210;2022-12-18T03:48:52;102562.72;;;-5.59;97.88
68793;BME280;55778;54.346;10.210;2022-12-18T03:51:48;102572.44;;;-5.61;98.10
68793;BME280;55778;54.346;10.210;2022-12-18T03:54:17;102567.13;;;-5.61;98.06
68793;BME280;55778;54.346;10.210;2022-12-18T03:56:46;102559.16;;;-5.66;98.08
68793;BME280;55778;54.346;10.210;2022-12-18T03:59:15;102553.84;;;-5.63;98.09
68793;BME280;55778;54.346;10.210;2022-12-18T04:01:46;102566.22;;;-5.63;97.69
68793;BME280;55778;54.346;10.210;2022-12-18T04:04:13;102557.41;;;-5.67;97.81
68793;BME280;55778;54.346;10.210;2022-12-18T04:06:40;102547.66;;;-5.69;98.10
68793;BME280;55778;54.346;10.210;2022-12-18T04:09:06;102544.13;;;-5.71;98.19
68793;BME280;55778;54.346;10.210;2022-12-18T04:11:32;102548.53;;;-5.72;98.03
68793;BME280;55778;54.346;10.210;2022-12-18T04:13:58;102544.13;;;-5.71;97.97
68793;BME280;55778;54.346;10.210;2022-12-18T04:16:27;102546.78;;;-5.68;98.08
68793;BME280;55778;54.346;10.210;2022-12-18T04:18:53;102549.44;;;-5.70;97.95
68793;BME280;55778;54.346;10.210;2022-12-18T04:21:19;102551.19;;;-5.70;97.93
68793;BME280;55778;54.346;10.210;2022-12-18T04:23:44;102553.84;;;-5.70;97.96
68793;BME280;55778;54.346;10.210;2022-12-18T04:26:10;102554.75;;;-5.71;97.81
68793;BME280;55778;54.346;10.210;2022-12-18T04:28:35;102579.50;;;-5.71;98.00
68793;BME280;55778;54.346;10.210;2022-12-18T04:31:01;102572.44;;;-5.70;97.72
68793;BME280;55778;54.346;10.210;2022-12-18T04:33:26;102586.59;;;-5.70;97.95
68793;BME280;55778;54.346;10.210;2022-12-18T04:35:51;102591.03;;;-5.69;97.87
68793;BME280;55778;54.346;10.210;2022-12-18T04:38:17;102594.56;;;-5.68;97.51
68793;BME280;55778;54.346;10.210;2022-12-18T04:40:43;102593.66;;;-5.69;97.34
68793;BME280;55778;54.346;10.210;2022-12-18T04:43:08;102600.75;;;-5.71;97.71
68793;BME280;55778;54.346;10.210;2022-12-18T04:45:34;102604.28;;;-5.72;97.66
68793;BME280;55778;54.346;10.210;2022-12-18T04:48:00;102607.84;;;-5.74;97.78
68793;BME280;55778;54.346;10.210;2022-12-18T04:50:26;102604.28;;;-5.75;97.82
68793;BME280;55778;54.346;10.210;2022-12-18T04:52:51;102598.09;;;-5.75;97.80
68793;BME280;55778;54.346;10.210;2022-12-18T04:55:17;102600.72;;;-5.77;97.58
68793;BME280;55778;54.346;10.210;2022-12-18T04:57:42;102602.53;;;-5.77;97.41
68793;BME280;55778;54.346;10.210;2022-12-18T05:00:08;102590.13;;;-5.80;97.56
68793;BME280;55778;54.346;10.210;2022-12-18T05:02:34;102589.28;;;-5.83;97.72
68793;BME280;55778;54.346;10.210;2022-12-18T05:04:59;102594.59;;;-5.83;97.68
68793;BME280;55778;54.346;10.210;2022-12-18T05:07:25;102600.75;;;-5.84;97.67
68793;BME280;55778;54.346;10.210;2022-12-18T05:09:50;102591.94;;;-5.85;97.55
68793;BME280;55778;54.346;10.210;2022-12-18T05:12:15;102597.25;;;-5.86;97.35
68793;BME280;55778;54.346;10.210;2022-12-18T05:14:41;102607.84;;;-5.92;97.41
68793;BME280;55778;54.346;10.210;2022-12-18T05:17:06;102613.16;;;-5.94;97.67
68793;BME280;55778;54.346;10.210;2022-12-18T05:19:32;102614.03;;;-5.98;97.72
68793;BME280;55778;54.346;10.210;2022-12-18T05:21:57;102613.16;;;-5.98;97.54
68793;BME280;55778;54.346;10.210;2022-12-18T05:24:23;102616.69;;;-6.04;97.64
68793;BME280;55778;54.346;10.210;2022-12-18T05:26:48;102622.84;;;-6.06;97.51
68793;BME280;55778;54.346;10.210;2022-12-18T05:29:14;102614.00;;;-6.11;97.69
68793;BME280;55778;54.346;10.210;2022-12-18T05:31:40;102610.44;;;-6.19;97.61
68793;BME280;55778;54.346;10.210;2022-12-18T05:34:05;102613.97;;;-6.27;97.79
68793;BME280;55778;54.346;10.210;2022-12-18T05:36:31;102614.88;;;-6.28;97.77
68793;BME280;55778;54.346;10.210;2022-12-18T05:38:57;102615.72;;;-6.32;97.98
68793;BME280;55778;54.346;10.210;2022-12-18T05:41:22;102611.28;;;-6.36;97.90
68793;BME280;55778;54.346;10.210;2022-12-18T05:43:47;102619.22;;;-6.39;98.01
68793;BME280;55778;54.346;10.210;2022-12-18T05:46:17;102608.63;;;-6.40;97.88
68793;BME280;55778;54.346;10.210;2022-12-18T05:48:44;102612.16;;;-6.43;97.93
68793;BME280;55778;54.346;10.210;2022-12-18T05:51:11;102620.97;;;-6.44;97.88
68793;BME280;55778;54.346;10.210;2022-12-18T05:53:37;102613.91;;;-6.48;97.75
68793;BME280;55778;54.346;10.210;2022-12-18T05:56:05;102609.47;;;-6.50;97.94
68793;BME280;55778;54.346;10.210;2022-12-18T05:58:32;102613.88;;;-6.49;97.85
68793;BME280;55778;54.346;10.210;2022-12-18T06:01:06;102622.75;;;-6.49;97.57
68793;BME280;55778;54.346;10.210;2022-12-18T06:03:32;102628.03;;;-6.50;97.76
68793;BME280;55778;54.346;10.210;2022-12-18T06:05:58;102632.44;;;-6.49;97.55
68793;BME280;55778;54.346;10.210;2022-12-18T06:08:23;102636.00;;;-6.52;97.29
68793;BME280;55778;54.346;10.210;2022-12-18T06:10:50;102638.63;;;-6.55;97.57
68793;BME280;55778;54.346;10.210;2022-12-18T06:13:16;102634.19;;;-6.60;97.37
68793;BME280;55778;54.346;10.210;2022-12-18T06:15:42;102640.34;;;-6.63;97.53
68793;BME280;55778;54.346;10.210;2022-12-18T06:18:07;102641.22;;;-6.64;97.28
68793;BME280;55778;54.346;10.210;2022-12-18T06:20:33;102635.91;;;-6.70;97.55
68793;BME280;55778;54.346;10.210;2022-12-18T06:22:58;102639.44;;;-6.72;97.45
68793;BME280;55778;54.346;10.210;2022-12-18T06:25:24;102640.25;;;-6.79;97.63
68793;BME280;55778;54.346;10.210;2022-12-18T06:27:49;102636.72;;;-6.81;97.57
68793;BME280;55778;54.346;10.210;2022-12-18T06:30:15;102657.00;;;-6.86;97.55
68793;BME280;55778;54.346;10.210;2022-12-18T06:32:40;102645.50;;;-6.88;97.57
68793;BME280;55778;54.346;10.210;2022-12-18T06:35:06;102644.59;;;-6.93;97.63
68793;BME280;55778;54.346;10.210;2022-12-18T06:37:31;102649.00;;;-6.97;97.66
68793;BME280;55778;54.346;10.210;2022-12-18T06:39:57;102645.47;;;-6.99;97.76
68793;BME280;55778;54.346;10.210;2022-12-18T06:42:24;102649.84;;;-7.02;97.84
68793;BME280;55778;54.346;10.210;2022-12-18T06:44:50;102650.75;;;-7.02;97.78
68793;BME280;55778;54.346;10.210;2022-12-18T06:47:15;102662.19;;;-7.04;97.97
68793;BME280;55778;54.346;10.210;2022-12-18T06:49:41;102674.56;;;-7.03;97.77
68793;BME280;55778;54.346;10.210;2022-12-18T06:52:06;102669.25;;;-7.06;97.85
68793;BME280;55778;54.346;10.210;2022-12-18T06:54:31;102656.88;;;-7.04;97.85
68793;BME280;55778;54.346;10.210;2022-12-18T06:56:57;102662.16;;;-7.09;97.60
68793;BME280;55778;54.346;10.210;2022-12-18T06:59:22;102663.97;;;-7.05;97.95
68793;BME280;55778;54.346;10.210;2022-12-18T07:01:48;102672.78;;;-7.03;97.66
68793;BME280;55778;54.346;10.210;2022-12-18T07:04:13;102678.09;;;-7.03;97.63
68793;BME280;55778;54.346;10.210;2022-12-18T07:06:38;102674.59;;;-7.02;97.69
68793;BME280;55778;54.346;10.210;2022-12-18T07:09:04;102679.88;;;-7.02;97.21
68793;BME280;55778;54.346;10.210;2022-12-18T07:11:32;102679.91;;;-7.00;97.46
68793;BME280;55778;54.346;10.210;2022-12-18T07:13:57;102673.69;;;-7.02;97.43
68793;BME280;55778;54.346;10.210;2022-12-18T07:16:23;102680.72;;;-7.03;97.13
68793;BME280;55778;54.346;10.210;2022-12-18T07:18:48;102693.13;;;-7.02;97.29
68793;BME280;55778;54.346;10.210;2022-12-18T07:21:16;102699.28;;;-7.01;96.91
68793;BME280;55778;54.346;10.210;2022-12-18T07:23:42;102700.22;;;-6.98;96.99
68793;BME280;55778;54.346;10.210;2022-12-18T07:26:11;102705.53;;;-6.95;96.86
68793;BME280;55778;54.346;10.210;2022-12-18T07:28:39;102697.56;;;-6.98;96.62
68793;BME280;55778;54.346;10.210;2022-12-18T07:31:11;102705.47;;;-7.02;96.63
68793;BME280;55778;54.346;10.210;2022-12-18T07:33:37;102709.88;;;-7.03;96.70
68793;BME280;55778;54.346;10.210;2022-12-18T07:36:04;102709.00;;;-7.05;96.47
68793;BME280;55778;54.346;10.210;2022-12-18T07:38:31;102715.16;;;-7.06;96.69
68793;BME280;55778;54.346;10.210;2022-12-18T07:41:01;102723.13;;;-7.03;96.70
68793;BME280;55778;54.346;10.210;2022-12-18T07:43:26;102732.84;;;-7.03;96.68
68793;BME280;55778;54.346;10.210;2022-12-18T07:45:52;102732.88;;;-7.02;96.79
68793;BME280;55778;54.346;10.210;2022-12-18T07:48:17;102732.00;;;-6.98;96.64
68793;BME280;55778;54.346;10.210;2022-12-18T07:50:43;102731.13;;;-6.95;96.40
68793;BME280;55778;54.346;10.210;2022-12-18T07:53:08;102736.50;;;-6.86;95.98
68793;BME280;55778;54.346;10.210;2022-12-18T07:55:34;102742.69;;;-6.86;95.61
68793;BME280;55778;54.346;10.210;2022-12-18T07:58:03;102737.41;;;-6.86;95.56
68793;BME280;55778;54.346;10.210;2022-12-18T08:00:30;102737.44;;;-6.81;95.51
68793;BME280;55778;54.346;10.210;2022-12-18T08:02:55;102735.66;;;-6.78;95.48
68793;BME280;55778;54.346;10.210;2022-12-18T08:05:21;102729.53;;;-6.72;95.27
68793;BME280;55778;54.346;10.210;2022-12-18T08:07:46;102729.59;;;-6.62;95.03
68793;BME280;55778;54.346;10.210;2022-12-18T08:10:12;102738.44;;;-6.58;94.37
68793;BME280;55778;54.346;10.210;2022-12-18T08:12:38;102734.91;;;-6.56;94.16
68793;BME280;55778;54.346;10.210;2022-12-18T08:15:04;102738.47;;;-6.55;94.17
68793;BME280;55778;54.346;10.210;2022-12-18T08:17:29;102738.50;;;-6.48;94.18
68793;BME280;55778;54.346;10.210;2022-12-18T08:19:55;102731.47;;;-6.47;93.67
68793;BME280;55778;54.346;10.210;2022-12-18T08:22:20;102728.81;;;-6.46;93.67
68793;BME280;55778;54.346;10.210;2022-12-18T08:24:46;102723.53;;;-6.43;93.75
68793;BME280;55778;54.346;10.210;2022-12-18T08:27:11;102721.81;;;-6.30;93.47
68793;BME280;55778;54.346;10.210;2022-12-18T08:29:36;102720.94;;;-6.22;92.55
68793;BME280;55778;54.346;10.210;2022-12-18T08:32:02;102721.88;;;-6.13;92.64
68793;BME280;55778;54.346;10.210;2022-12-18T08:34:27;102724.53;;;-6.13;92.60
68793;BME280;55778;54.346;10.210;2022-12-18T08:36:53;102731.59;;;-6.12;92.43
68793;BME280;55778;54.346;10.210;2022-12-18T08:39:18;102727.19;;;-6.12;92.65
68793;BME280;55778;54.346;10.210;2022-12-18T08:41:44;102733.41;;;-6.11;92.34
68793;BME280;55778;54.346;10.210;2022-12-18T08:44:29;102729.84;;;-6.09;92.30
68793;BME280;55778;54.346;10.210;2022-12-18T08:47:05;102728.91;;;-6.18;92.86
68793;BME280;55778;54.346;10.210;2022-12-18T08:49:31;102723.63;;;-6.15;93.29
68793;BME280;55778;54.346;10.210;2022-12-18T08:51:57;102719.16;;;-6.29;93.03
68793;BME280;55778;54.346;10.210;2022-12-18T08:54:23;102720.09;;;-6.20;92.88
68793;BME280;55778;54.346;10.210;2022-12-18T08:56:48;102715.63;;;-6.22;92.64
68793;BME280;55778;54.346;10.210;2022-12-18T08:59:15;102720.97;;;-6.26;92.97
68793;BME280;55778;54.346;10.210;2022-12-18T09:01:41;102723.59;;;-6.31;92.92
68793;BME280;55778;54.346;10.210;2022-12-18T09:04:08;102731.56;;;-6.28;92.88
68793;BME280;55778;54.346;10.210;2022-12-18T09:06:34;102743.00;;;-6.33;92.88
68793;BME280;55778;54.346;10.210;2022-12-18T09:08:59;102746.56;;;-6.31;92.78
68793;BME280;55778;54.346;10.210;2022-12-18T09:11:26;102737.75;;;-6.22;93.29
68793;BME280;55778;54.346;10.210;2022-12-18T09:13:53;102737.75;;;-6.21;92.99
68793;BME280;55778;54.346;10.210;2022-12-18T09:16:19;102744.00;;;-6.11;92.80
68793;BME280;55778;54.346;10.210;2022-12-18T09:18:45;102739.59;;;-6.05;92.78
68793;BME280;55778;54.346;10.210;2022-12-18T09:21:14;102743.16;;;-6.00;92.87
68793;BME280;55778;54.346;10.210;2022-12-18T09:23:40;102738.75;;;-5.80;92.52
68793;BME280;55778;54.346;10.210;2022-12-18T09:26:05;102744.06;;;-5.80;91.77
68793;BME280;55778;54.346;10.210;2022-12-18T09:28:31;102730.81;;;-5.71;91.59
68793;BME280;55778;54.346;10.210;2022-12-18T09:30:56;102733.53;;;-5.51;91.24
68793;BME280;55778;54.346;10.210;2022-12-18T09:33:22;102736.19;;;-5.36;90.27
68793;BME280;55778;54.346;10.210;2022-12-18T09:35:47;102732.66;;;-5.19;90.20
68793;BME280;55778;54.346;10.210;2022-12-18T09:38:17;102745.97;;;-5.04;89.69
68793;BME280;55778;54.346;10.210;2022-12-18T09:40:47;102735.34;;;-5.04;88.86
68793;BME280;55778;54.346;10.210;2022-12-18T09:43:26;102741.50;;;-4.75;88.30
68793;BME280;55778;54.346;10.210;2022-12-18T09:45:56;102745.03;;;-4.59;87.05
68793;BME280;55778;54.346;10.210;2022-12-18T09:48:42;102741.47;;;-4.49;86.59
68793;BME280;55778;54.346;10.210;2022-12-18T09:51:32;102730.84;;;-4.58;86.55
68793;BME280;55778;54.346;10.210;2022-12-18T09:54:05;102730.81;;;-4.48;86.89
68793;BME280;55778;54.346;10.210;2022-12-18T09:56:40;102715.69;;;-4.22;85.53
68793;BME280;55778;54.346;10.210;2022-12-18T09:59:27;102724.56;;;-4.33;85.60
68793;BME280;55778;54.346;10.210;2022-12-18T10:01:56;102730.75;;;-4.24;85.59
68793;BME280;55778;54.346;10.210;2022-12-18T10:04:21;102735.22;;;-4.33;85.59
68793;BME280;55778;54.346;10.210;2022-12-18T10:14:57;102742.16;;;-3.93;84.64
68793;BME280;55778;54.346;10.210;2022-12-18T10:20:41;102746.59;;;-3.87;84.50
68793;BME280;55778;54.346;10.210;2022-12-18T10:26:10;102734.88;;;-3.58;84.59
68793;BME280;55778;54.346;10.210;2022-12-18T10:28:38;102737.47;;;-3.46;83.57
68793;BME280;55778;54.346;10.210;2022-12-18T10:31:05;102739.19;;;-3.36;83.84
68793;BME280;55778;54.346;10.210;2022-12-18T10:33:32;102746.22;;;-3.29;83.62
68793;BME280;55778;54.346;10.210;2022-12-18T10:35:58;102747.72;;;-2.93;82.74
68793;BME280;55778;54.346;10.210;2022-12-18T10:38:31;102749.47;;;-2.91;83.09
68793;BME280;55778;54.346;10.210;2022-12-18T10:41:03;102765.47;;;-2.92;82.80
68793;BME280;55778;54.346;10.210;2022-12-18T10:43:37;102769.16;;;-3.05;82.54
68793;BME280;55778;54.346;10.210;2022-12-18T10:48:57;102762.94;;;-3.03;82.10
68793;BME280;55778;54.346;10.210;2022-12-18T10:51:27;102754.00;;;-2.97;82.98
68793;BME280;55778;54.346;10.210;2022-12-18T10:54:05;102745.97;;;-2.93;82.12
68793;BME280;55778;54.346;10.210;2022-12-18T10:56:34;102748.63;;;-2.94;81.93
68793;BME280;55778;54.346;10.210;2022-12-18T10:59:05;102746.03;;;-3.00;82.37
68793;BME280;55778;54.346;10.210;2022-12-18T11:01:57;102741.47;;;-2.92;83.40
68793;BME280;55778;54.346;10.210;2022-12-18T11:04:31;102733.53;;;-2.95;82.67
68793;BME280;55778;54.346;10.210;2022-12-18T11:07:05;102742.31;;;-2.86;82.58
68793;BME280;55778;54.346;10.210;2022-12-18T11:09:34;102742.31;;;-2.86;82.12
68793;BME280;55778;54.346;10.210;2022-12-18T11:12:02;102745.03;;;-2.92;83.59
68793;BME280;55778;54.346;10.210;2022-12-18T11:14:32;102745.03;;;-2.90;83.79
68793;BME280;55778;54.346;10.210;2022-12-18T11:17:00;102745.09;;;-2.98;84.19
68793;BME280;55778;54.346;10.210;2022-12-18T11:19:36;102743.31;;;-2.97;84.79
68793;BME280;55778;54.346;10.210;2022-12-18T11:25:17;102745.03;;;-2.89;84.63
68793;BME280;55778;54.346;10.210;2022-12-18T11:30:35;102733.34;;;-2.77;84.37
68793;BME280;55778;54.346;10.210;2022-12-18T11:33:09;102738.66;;;-2.74;84.00
68793;BME280;55778;54.346;10.210;2022-12-18T11:35:49;102732.88;;;-3.27;85.35
68793;BME280;55778;54.346;10.210;2022-12-18T11:38:18;102733.91;;;-3.45;85.53
68793;BME280;55778;54.346;10.210;2022-12-18T11:40:51;102727.69;;;-3.47;86.31
68793;BME280;55778;54.346;10.210;2022-12-18T11:43:58;102728.75;;;-3.73;87.09
68793;BME280;55778;54.346;10.210;2022-12-18T11:46:32;102724.38;;;-3.86;87.79
68793;BME280;55778;54.346;10.210;2022-12-18T11:49:27;102724.38;;;-3.85;88.17
68793;BME280;55778;54.346;10.210;2022-12-18T11:55:15;102729.75;;;-3.95;88.66
68793;BME280;55778;54.346;10.210;2022-12-18T12:00:18;102738.63;;;-3.92;89.19
68793;BME280;55778;54.346;10.210;2022-12-18T12:12:14;102712.97;;;-4.05;89.89
68793;BME280;55778;54.346;10.210;2022-12-18T12:17:42;102691.72;;;-4.20;90.36
68793;BME280;55778;54.346;10.210;2022-12-18T12:25:59;102696.16;;;-4.22;90.40
68793;BME280;55778;54.346;10.210;2022-12-18T12:39:36;102682.72;;;-3.93;89.05
68793;BME280;55778;54.346;10.210;2022-12-18T12:42:05;102672.81;;;-3.75;88.96
68793;BME280;55778;54.346;10.210;2022-12-18T12:44:55;102674.66;;;-3.83;88.76
68793;BME280;55778;54.346;10.210;2022-12-18T12:47:27;102666.75;;;-3.98;89.15
68793;BME280;55778;54.346;10.210;2022-12-18T12:49:54;102664.97;;;-3.99;89.55
68793;BME280;55778;54.346;10.210;2022-12-18T12:52:34;102658.78;;;-3.98;89.28
68793;BME280;55778;54.346;10.210;2022-12-18T12:55:04;102655.28;;;-4.07;89.70
68793;BME280;55778;54.346;10.210;2022-12-18T12:57:37;102642.91;;;-4.16;90.00
68793;BME280;55778;54.346;10.210;2022-12-18T13:00:09;102639.34;;;-4.20;90.12
68793;BME280;55778;54.346;10.210;2022-12-18T13:05:31;102616.25;;;-4.10;90.16
68793;BME280;55778;54.346;10.210;2022-12-18T13:08:03;102610.03;;;-4.11;90.68
68793;BME280;55778;54.346;10.210;2022-12-18T13:10:35;102603.84;;;-4.11;90.24
68793;BME280;55778;54.346;10.210;2022-12-18T13:15:46;102603.81;;;-4.06;90.28
68793;BME280;55778;54.346;10.210;2022-12-18T13:18:22;102605.59;;;-4.07;90.12
68793;BME280;55778;54.346;10.210;2022-12-18T13:20:51;102591.38;;;-4.04;89.90
68793;BME280;55778;54.346;10.210;2022-12-18T13:31:02;102613.50;;;-3.95;89.37
68793;BME280;55778;54.346;10.210;2022-12-18T13:33:42;102618.88;;;-4.01;88.66
68793;BME280;55778;54.346;10.210;2022-12-18T13:38:39;102626.91;;;-4.12;88.80
68793;BME280;55778;54.346;10.210;2022-12-18T13:43:47;102616.31;;;-4.22;88.99
68793;BME280;55778;54.346;10.210;2022-12-18T13:48:56;102616.34;;;-4.30;89.32
68793;BME280;55778;54.346;10.210;2022-12-18T13:51:22;102610.16;;;-4.36;89.13
68793;BME280;55778;54.346;10.210;2022-12-18T13:53:54;102613.72;;;-4.36;88.89
68793;BME280;55778;54.346;10.210;2022-12-18T13:56:26;102614.66;;;-4.41;88.76
68793;BME280;55778;54.346;10.210;2022-12-18T13:59:12;102627.06;;;-4.48;89.20
68793;BME280;55778;54.346;10.210;2022-12-18T14:01:46;102631.53;;;-4.48;88.91
68793;BME280;55778;54.346;10.210;2022-12-18T14:04:18;102629.75;;;-4.51;88.50
68793;BME280;55778;54.346;10.210;2022-12-18T14:06:45;102631.56;;;-4.54;88.92
68793;BME280;55778;54.346;10.210;2022-12-18T14:09:23;102627.13;;;-4.60;89.19
68793;BME280;55778;54.346;10.210;2022-12-18T14:11:50;102622.69;;;-4.59;88.91
68793;BME280;55778;54.346;10.210;2022-12-18T14:14:17;102634.25;;;-4.65;89.36
68793;BME280;55778;54.346;10.210;2022-12-18T14:16:43;102626.31;;;-4.72;89.46
68793;BME280;55778;54.346;10.210;2022-12-18T14:19:17;102631.63;;;-4.78;89.91
68793;BME280;55778;54.346;10.210;2022-12-18T14:21:47;102629.88;;;-4.82;89.76
68793;BME280;55778;54.346;10.210;2022-12-18T14:24:16;102622.78;;;-4.85;89.45
68793;BME280;55778;54.346;10.210;2022-12-18T14:26:42;102615.72;;;-4.89;89.25
68793;BME280;55778;54.346;10.210;2022-12-18T14:31:44;102612.16;;;-4.92;89.95
68793;BME280;55778;54.346;10.210;2022-12-18T14:34:16;102619.28;;;-4.96;89.64
68793;BME280;55778;54.346;10.210;2022-12-18T14:36:52;102618.41;;;-5.01;89.75